createdAt,value
2018-02-01T00:02:21.733Z,99128.45
2018-02-01T00:04:50.066Z,99123.00
2018-02-01T00:07:18.378Z,99133.50
2018-02-01T00:09:46.714Z,99134.07
2018-02-01T00:12:15.026Z,99126.34
2018-02-01T00:14:43.393Z,99120.80
2018-02-01T00:17:11.674Z,99112.91
2018-02-01T00:19:40.008Z,99124.99
2018-02-01T00:22:08.314Z,99123.95
2018-02-01T00:24:36.645Z,99112.89
2018-02-01T00:27:04.961Z,99119.22
2018-02-01T00:29:33.288Z,99131.32
2018-02-01T00:32:01.599Z,99122.68
2018-02-01T00:34:29.929Z,99114.77
2018-02-01T00:36:58.241Z,99119.59
2018-02-01T00:39:26.578Z,99117.20
2018-02-01T00:41:54.881Z,99122.88
2018-02-01T00:44:23.212Z,99119.88
2018-02-01T00:46:51.518Z,99125.54
2018-02-01T00:49:19.858Z,99130.97
2018-02-01T00:51:48.169Z,99127.61
2018-02-01T00:54:16.493Z,99119.91
2018-02-01T00:56:44.809Z,99110.20
2018-02-01T00:59:13.149Z,99107.70
2018-02-01T01:01:41.463Z,99110.28
2018-02-01T01:04:09.782Z,99106.35
2018-02-01T01:06:38.113Z,99106.94
2018-02-01T01:09:06.425Z,99117.02
2018-02-01T01:11:34.762Z,99120.23
2018-02-01T01:14:03.077Z,99115.18
2018-02-01T01:16:31.411Z,99111.23
2018-02-01T01:18:59.721Z,99109.30
2018-02-01T01:21:28.059Z,99106.73
2018-02-01T01:23:56.381Z,99113.44
2018-02-01T01:26:24.718Z,99117.30
2018-02-01T01:28:53.034Z,99116.47
2018-02-01T01:31:21.365Z,99118.69
2018-02-01T01:33:49.682Z,99117.31
2018-02-01T01:36:18.022Z,99117.37
2018-02-01T01:38:46.337Z,99113.61
2018-02-01T01:41:14.682Z,99117.94
2018-02-01T01:43:42.994Z,99108.80
2018-02-01T01:46:11.330Z,99113.64
2018-02-01T01:48:39.637Z,99110.41
2018-02-01T01:51:07.973Z,99108.20
2018-02-01T01:53:36.289Z,99110.92
2018-02-01T01:56:04.625Z,99115.18
2018-02-01T01:58:32.944Z,99111.97
2018-02-01T02:01:01.273Z,99111.02
2018-02-01T02:03:29.590Z,99120.67
2018-02-01T02:05:57.914Z,99117.33
2018-02-01T02:08:26.230Z,99113.34
2018-02-01T02:10:54.565Z,99106.12
2018-02-01T02:13:22.882Z,99096.37
2018-02-01T02:15:51.225Z,99100.25
2018-02-01T02:18:19.534Z,99098.88
2018-02-01T02:20:47.874Z,99100.77
2018-02-01T02:23:16.182Z,99105.80
2018-02-01T02:25:44.517Z,99094.95
2018-02-01T02:28:12.834Z,99096.11
2018-02-01T02:30:41.173Z,99099.45
2018-02-01T02:33:09.494Z,99095.80
2018-02-01T02:35:38.162Z,99093.77
2018-02-01T02:38:07.370Z,99088.13
2018-02-01T02:40:35.709Z,99089.87
2018-02-01T02:43:04.050Z,99085.91
2018-02-01T02:45:32.362Z,99089.44
2018-02-01T02:48:00.678Z,99091.35
2018-02-01T02:50:29.018Z,99096.34
2018-02-01T02:52:57.329Z,99100.67
2018-02-01T02:55:25.669Z,99101.72
2018-02-01T02:57:53.985Z,99105.76
2018-02-01T03:00:22.325Z,99096.73
2018-02-01T03:02:50.642Z,99094.15
2018-02-01T03:05:18.958Z,99096.91
2018-02-01T03:07:47.293Z,99097.51
2018-02-01T03:10:15.611Z,99095.50
2018-02-01T03:12:43.949Z,99096.13
2018-02-01T03:15:12.266Z,99090.91
2018-02-01T03:17:40.605Z,99086.95
2018-02-01T03:20:08.918Z,99091.02
2018-02-01T03:22:37.253Z,99088.33
2018-02-01T03:25:05.573Z,99091.44
2018-02-01T03:27:33.907Z,99095.91
2018-02-01T03:30:02.222Z,99094.87
2018-02-01T03:32:30.558Z,99097.38
2018-02-01T03:34:58.875Z,99093.09
2018-02-01T03:37:27.213Z,99088.44
2018-02-01T03:39:55.525Z,99085.03
2018-02-01T03:42:23.857Z,99085.52
2018-02-01T03:44:52.177Z,99093.22
2018-02-01T03:47:20.522Z,99092.56
2018-02-01T03:49:48.843Z,99087.23
2018-02-01T03:52:17.177Z,99099.24
2018-02-01T03:54:45.494Z,99101.09
2018-02-01T03:57:13.838Z,99107.00
2018-02-01T03:59:42.154Z,99112.34
2018-02-01T04:02:10.485Z,99110.91
2018-02-01T04:04:38.802Z,99110.44
2018-02-01T04:07:07.141Z,99111.78
2018-02-01T04:09:35.468Z,99103.33
2018-02-01T04:12:03.807Z,99105.20
2018-02-01T04:14:32.122Z,99104.91
2018-02-01T04:17:00.464Z,99094.19
2018-02-01T04:19:28.778Z,99099.13
2018-02-01T04:21:57.113Z,99105.02
2018-02-01T04:24:25.437Z,99110.93
2018-02-01T04:26:53.787Z,99103.08
2018-02-01T04:29:22.102Z,99108.91
2018-02-01T04:31:50.437Z,99118.33
2018-02-01T04:34:18.759Z,99114.74
2018-02-01T04:36:47.104Z,99114.00
2018-02-01T04:39:15.417Z,99113.68
2018-02-01T04:41:43.758Z,99114.54
2018-02-01T04:44:12.078Z,99112.78
2018-02-01T04:46:40.421Z,99112.88
2018-02-01T04:49:08.742Z,99114.86
2018-02-01T04:51:37.085Z,99111.45
2018-02-01T04:54:05.406Z,99121.47
2018-02-01T04:56:33.751Z,99127.05
2018-02-01T04:59:02.082Z,99122.16
2018-02-01T05:01:30.421Z,99120.61
2018-02-01T05:03:58.742Z,99113.23
2018-02-01T05:06:27.059Z,99113.18
2018-02-01T05:08:55.397Z,99110.91
2018-02-01T05:11:23.719Z,99105.52
2018-02-01T05:13:52.058Z,99105.85
2018-02-01T05:16:20.377Z,99103.34
2018-02-01T05:18:48.714Z,99102.45
2018-02-01T05:21:17.029Z,99103.55
2018-02-01T05:23:45.373Z,99105.98
2018-02-01T05:26:13.694Z,99107.20
2018-02-01T05:28:42.038Z,99109.12
2018-02-01T05:31:10.361Z,99112.50
2018-02-01T05:33:38.709Z,99104.41
2018-02-01T05:36:07.026Z,99104.73
2018-02-01T05:38:35.373Z,99107.93
2018-02-01T05:41:03.705Z,99107.17
2018-02-01T05:43:32.059Z,99102.66
2018-02-01T05:46:01.479Z,99108.50
2018-02-01T05:48:29.974Z,99107.53
2018-02-01T05:50:58.318Z,99101.27
2018-02-01T05:53:26.653Z,99105.17
2018-02-01T05:55:54.977Z,99103.98
2018-02-01T05:58:23.333Z,99110.52
2018-02-01T06:00:51.640Z,99109.53
2018-02-01T06:03:19.981Z,99104.04
2018-02-01T06:05:48.313Z,99102.14
2018-02-01T06:08:17.445Z,99101.72
2018-02-01T06:10:45.766Z,99103.36
2018-02-01T06:13:14.846Z,99100.15
2018-02-01T06:15:44.279Z,99111.39
2018-02-01T06:18:19.827Z,99108.44
2018-02-01T06:20:58.492Z,99120.62
2018-02-01T06:23:41.321Z,99112.80
2018-02-01T06:26:12.186Z,99115.77
2018-02-01T06:28:40.808Z,99115.12
2018-02-01T06:31:09.116Z,99115.48
2018-02-01T06:33:37.458Z,99121.06
2018-02-01T06:36:05.779Z,99117.27
2018-02-01T06:38:34.114Z,99121.76
2018-02-01T06:41:02.438Z,99121.58
2018-02-01T06:43:30.778Z,99114.92
2018-02-01T06:45:59.181Z,99120.34
2018-02-01T06:48:27.521Z,99114.92
2018-02-01T06:50:55.841Z,99121.98
2018-02-01T06:53:24.246Z,99124.55
2018-02-01T06:55:53.509Z,99122.69
2018-02-01T06:58:21.847Z,99129.29
2018-02-01T07:00:54.016Z,99122.21
2018-02-01T07:03:22.354Z,99119.98
2018-02-01T07:05:50.673Z,99124.92
2018-02-01T07:08:19.014Z,99126.88
2018-02-01T07:10:47.330Z,99127.10
2018-02-01T07:13:15.673Z,99124.93
2018-02-01T07:15:43.994Z,99132.45
2018-02-01T07:18:12.342Z,99131.76
2018-02-01T07:20:42.614Z,99134.24
2018-02-01T07:23:10.958Z,99141.55
2018-02-01T07:25:39.276Z,99135.64
2018-02-01T07:28:07.618Z,99131.28
2018-02-01T07:30:35.937Z,99141.42
2018-02-01T07:33:04.278Z,99144.36
2018-02-01T07:35:32.593Z,99147.41
2018-02-01T07:38:00.932Z,99146.44
2018-02-01T07:40:29.246Z,99139.45
2018-02-01T07:42:57.590Z,99144.94
2018-02-01T07:45:35.810Z,99142.91
2018-02-01T07:48:04.171Z,99151.98
2018-02-01T07:50:32.502Z,99142.19
2018-02-01T07:53:00.801Z,99147.03
2018-02-01T07:55:29.147Z,99150.62
2018-02-01T07:57:57.462Z,99155.09
2018-02-01T08:00:25.802Z,99157.44
2018-02-01T08:02:54.127Z,99149.32
2018-02-01T08:05:22.458Z,99156.63
2018-02-01T08:07:50.778Z,99154.13
2018-02-01T08:10:19.126Z,99150.15
2018-02-01T08:12:47.442Z,99153.52
2018-02-01T08:15:15.777Z,99140.10
2018-02-01T08:17:44.094Z,99151.70
2018-02-01T08:20:12.436Z,99148.48
2018-02-01T08:22:40.753Z,99148.16
2018-02-01T08:25:09.102Z,99145.87
2018-02-01T08:27:37.417Z,99151.31
2018-02-01T08:30:05.763Z,99149.53
2018-02-01T08:32:34.085Z,99149.17
2018-02-01T08:35:02.418Z,99158.12
2018-02-01T08:37:30.742Z,99155.48
2018-02-01T08:39:59.078Z,99155.00
2018-02-01T08:42:27.397Z,99152.07
2018-02-01T08:44:55.737Z,99162.45
2018-02-01T08:47:24.049Z,99159.98
2018-02-01T08:49:52.385Z,99164.11
2018-02-01T08:52:20.711Z,99159.24
2018-02-01T08:54:49.037Z,99165.22
2018-02-01T08:57:17.481Z,99155.98
2018-02-01T08:59:45.819Z,99153.89
2018-02-01T09:02:14.133Z,99164.50
2018-02-01T09:04:42.469Z,99159.69
2018-02-01T09:07:10.791Z,99155.87
2018-02-01T09:09:39.121Z,99165.72
2018-02-01T09:12:07.443Z,99162.06
2018-02-01T09:14:35.784Z,99166.20
2018-02-01T09:17:04.093Z,99167.23
2018-02-01T09:19:32.460Z,99177.76
2018-02-01T09:22:00.757Z,99178.84
2018-02-01T09:24:29.097Z,99175.09
2018-02-01T09:26:57.613Z,99179.95
2018-02-01T09:29:25.958Z,99176.86
2018-02-01T09:31:54.453Z,99176.95
2018-02-01T09:34:23.015Z,99181.62
2018-02-01T09:36:51.817Z,99188.93
2018-02-01T09:39:20.165Z,99184.13
2018-02-01T09:41:48.486Z,99181.22
2018-02-01T09:44:16.982Z,99179.88
2018-02-01T09:46:45.283Z,99176.57
2018-02-01T09:49:13.697Z,99183.95
2018-02-01T09:51:42.017Z,99178.94
2018-02-01T09:54:10.341Z,99181.58
2018-02-01T09:56:38.674Z,99172.05
2018-02-01T09:59:07.002Z,99180.16
2018-02-01T10:01:35.344Z,99174.48
2018-02-01T10:04:03.657Z,99180.98
2018-02-01T10:06:32.006Z,99181.31
2018-02-01T10:09:00.366Z,99175.03
2018-02-01T10:11:28.700Z,99185.87
2018-02-01T10:13:57.035Z,99181.19
2018-02-01T10:16:25.417Z,99182.19
2018-02-01T10:18:54.221Z,99188.50
2018-02-01T10:21:22.554Z,99190.33
2018-02-01T10:23:50.874Z,99191.64
2018-02-01T10:26:19.217Z,99189.98
2018-02-01T10:28:47.533Z,99183.30
2018-02-01T10:31:15.873Z,99186.35
2018-02-01T10:33:44.190Z,99183.88
2018-02-01T10:36:12.530Z,99181.82
2018-02-01T10:38:40.844Z,99176.45
2018-02-01T10:41:10.087Z,99181.70
2018-02-01T10:43:38.401Z,99180.72
2018-02-01T10:46:07.661Z,99183.80
2018-02-01T10:48:36.147Z,99179.98
2018-02-01T10:51:04.514Z,99180.30
2018-02-01T10:53:32.884Z,99162.22
2018-02-01T10:56:01.217Z,99173.89
2018-02-01T10:58:29.530Z,99182.05
2018-02-01T11:00:57.870Z,99170.20
2018-02-01T11:03:26.202Z,99166.12
2018-02-01T11:05:54.534Z,99181.48
2018-02-01T11:08:22.853Z,99187.52
2018-02-01T11:10:51.194Z,99182.78
2018-02-01T11:13:19.570Z,99188.66
2018-02-01T11:15:47.905Z,99181.80
2018-02-01T11:18:16.225Z,99178.77
2018-02-01T11:20:44.623Z,99186.89
2018-02-01T11:23:12.934Z,99184.74
2018-02-01T11:25:42.210Z,99186.66
2018-02-01T11:28:10.534Z,99188.17
2018-02-01T11:30:38.903Z,99184.99
2018-02-01T11:33:07.222Z,99185.63
2018-02-01T11:35:35.562Z,99171.13
2018-02-01T11:38:03.881Z,99172.47
2018-02-01T11:40:32.242Z,99167.17
2018-02-01T11:43:00.595Z,99161.63
2018-02-01T11:45:28.943Z,99151.18
2018-02-01T11:47:57.256Z,99149.02
2018-02-01T11:50:25.594Z,99148.66
2018-02-01T11:52:53.913Z,99146.70
2018-02-01T11:55:22.249Z,99132.70
2018-02-01T11:57:50.566Z,99132.66
2018-02-01T12:00:18.886Z,99133.08
2018-02-01T12:02:47.227Z,99136.48
2018-02-01T12:05:15.547Z,99133.44
2018-02-01T12:07:43.886Z,99134.27
2018-02-01T12:10:12.317Z,99119.94
2018-02-01T12:12:41.559Z,99131.20
2018-02-01T12:15:09.873Z,99120.61
2018-02-01T12:17:38.222Z,99119.70
2018-02-01T12:20:06.542Z,99116.63
2018-02-01T12:22:34.886Z,99103.63
2018-02-01T12:25:03.214Z,99101.38
2018-02-01T12:27:31.537Z,99100.44
2018-02-01T12:29:59.870Z,99096.65
2018-02-01T12:32:28.205Z,99095.42
2018-02-01T12:34:56.517Z,99099.33
2018-02-01T12:37:24.853Z,99097.67
2018-02-01T12:39:53.214Z,99097.38
2018-02-01T12:42:21.553Z,99095.00
2018-02-01T12:44:49.925Z,99087.29
2018-02-01T12:47:18.280Z,99090.84
2018-02-01T12:49:46.599Z,99100.09
2018-02-01T12:52:14.934Z,99088.20
2018-02-01T12:54:43.253Z,99094.77
2018-02-01T12:57:11.586Z,99099.42
2018-02-01T12:59:39.931Z,99104.59
2018-02-01T13:02:08.265Z,99107.17
2018-02-01T13:04:36.577Z,99096.93
2018-02-01T13:07:04.909Z,99100.11
2018-02-01T13:09:33.222Z,99097.81
2018-02-01T13:12:01.548Z,99095.53
2018-02-01T13:14:29.857Z,99103.49
2018-02-01T13:16:58.193Z,99112.55
2018-02-01T13:19:26.513Z,99109.98
2018-02-01T13:21:54.850Z,99114.51
2018-02-01T13:24:23.158Z,99111.84
2018-02-01T13:26:51.506Z,99102.39
2018-02-01T13:29:21.132Z,99109.05
2018-02-01T13:31:49.656Z,99112.16
2018-02-01T13:34:18.148Z,99124.05
2018-02-01T13:36:49.681Z,99121.30
2018-02-01T13:39:19.603Z,99133.69
2018-02-01T13:41:50.795Z,99129.48
2018-02-01T13:44:23.182Z,99132.68
2018-02-01T13:46:53.132Z,99140.17
2018-02-01T13:49:23.202Z,99136.95
2018-02-01T13:51:51.597Z,99133.34
2018-02-01T13:54:19.934Z,99143.03
2018-02-01T13:56:48.279Z,99149.54
2018-02-01T13:59:16.885Z,99137.48
2018-02-01T14:01:45.375Z,99139.80
2018-02-01T14:04:13.966Z,99137.36
2018-02-01T14:06:42.587Z,99134.71
2018-02-01T14:09:12.381Z,99126.59
2018-02-01T14:11:41.009Z,99142.05
2018-02-01T14:14:11.006Z,99150.38
2018-02-01T14:16:42.768Z,99150.42
2018-02-01T14:19:11.459Z,99145.59
2018-02-01T14:21:40.038Z,99148.73
2018-02-01T14:24:08.588Z,99145.73
2018-02-01T14:26:36.942Z,99148.68
2018-02-01T14:29:05.509Z,99149.11
2018-02-01T14:31:34.174Z,99148.94
2018-02-01T14:34:02.664Z,99156.20
2018-02-01T14:36:31.213Z,99148.77
2018-02-01T14:38:59.832Z,99149.20
2018-02-01T14:41:28.210Z,99144.25
2018-02-01T14:43:56.585Z,99143.45
2018-02-01T14:46:25.027Z,99148.91
2018-02-01T14:48:53.435Z,99149.25
2018-02-01T14:51:21.915Z,99154.17
2018-02-01T14:53:51.771Z,99149.23
2018-02-01T14:56:23.046Z,99152.85
2018-02-01T14:58:52.585Z,99152.67
2018-02-01T15:01:20.922Z,99152.38
2018-02-01T15:03:49.253Z,99145.23
2018-02-01T15:06:17.579Z,99143.52
2018-02-01T15:08:45.911Z,99145.02
2018-02-01T15:11:14.226Z,99142.34
2018-02-01T15:13:42.565Z,99144.94
2018-02-01T15:16:11.777Z,99145.66
2018-02-01T15:18:40.110Z,99144.53
2018-02-01T15:21:08.421Z,99145.56
2018-02-01T15:23:36.761Z,99141.51
2018-02-01T15:26:06.004Z,99134.34
2018-02-01T15:28:34.341Z,99137.94
2018-02-01T15:31:02.755Z,99137.20
2018-02-01T15:33:31.093Z,99141.28
2018-02-01T15:35:59.401Z,99139.91
2018-02-01T15:38:27.741Z,99138.22
2018-02-01T15:40:56.049Z,99128.36
2018-02-01T15:43:24.385Z,99135.31
2018-02-01T15:45:52.706Z,99132.30
2018-02-01T15:48:21.053Z,99134.19
2018-02-01T15:50:49.361Z,99137.05
2018-02-01T15:53:17.702Z,99133.28
2018-02-01T15:55:46.905Z,99145.49
2018-02-01T15:58:15.244Z,99147.86
2018-02-01T16:00:43.562Z,99146.23
2018-02-01T16:03:11.898Z,99163.73
2018-02-01T16:05:40.213Z,99154.89
2018-02-01T16:08:08.541Z,99165.08
2018-02-01T16:10:36.889Z,99170.03
2018-02-01T16:13:05.209Z,99166.71
2018-02-01T16:15:33.531Z,99167.09
2018-02-01T16:18:01.866Z,99171.70
2018-02-01T16:20:30.182Z,99167.03
2018-02-01T16:22:58.521Z,99169.74
2018-02-01T16:25:27.141Z,99172.59
2018-02-01T16:27:55.498Z,99174.09
2018-02-01T16:30:23.825Z,99172.45
2018-02-01T16:32:52.139Z,99173.39
2018-02-01T16:35:20.477Z,99173.61
2018-02-01T16:37:48.794Z,99171.16
2018-02-01T16:40:17.134Z,99172.77
2018-02-01T16:42:45.443Z,99167.73
2018-02-01T16:45:14.066Z,99162.73
2018-02-01T16:47:42.377Z,99161.58
2018-02-01T16:50:10.705Z,99156.00
2018-02-01T16:52:39.021Z,99156.20
2018-02-01T16:55:07.361Z,99155.16
2018-02-01T16:57:35.716Z,99156.64
2018-02-01T17:00:04.027Z,99158.35
2018-02-01T17:02:32.401Z,99163.06
2018-02-01T17:05:01.697Z,99168.63
2018-02-01T17:07:30.019Z,99165.64
2018-02-01T17:09:58.357Z,99174.54
2018-02-01T17:12:26.664Z,99181.42
2018-02-01T17:14:55.003Z,99173.84
2018-02-01T17:17:23.313Z,99173.02
2018-02-01T17:19:51.650Z,99176.09
2018-02-01T17:22:19.953Z,99175.48
2018-02-01T17:24:48.401Z,99180.67
2018-02-01T17:27:16.786Z,99182.82
2018-02-01T17:29:45.093Z,99182.69
2018-02-01T17:32:13.405Z,99181.24
2018-02-01T17:34:41.738Z,99188.27
2018-02-01T17:37:10.046Z,99186.66
2018-02-01T17:39:38.377Z,99189.41
2018-02-01T17:42:06.682Z,99185.82
2018-02-01T17:44:36.023Z,99191.59
2018-02-01T17:47:04.329Z,99187.46
2018-02-01T17:49:32.665Z,99196.81
2018-02-01T17:52:01.009Z,99196.66
2018-02-01T17:54:29.313Z,99201.34
2018-02-01T17:56:57.626Z,99198.55
2018-02-01T17:59:25.965Z,99194.10
2018-02-01T18:01:54.277Z,99199.54
2018-02-01T18:04:22.945Z,99199.47
2018-02-01T18:06:51.254Z,99202.06
2018-02-01T18:09:19.592Z,99202.77
2018-02-01T18:11:47.893Z,99206.41
2018-02-01T18:14:16.222Z,99213.45
2018-02-01T18:16:44.530Z,99211.66
2018-02-01T18:19:12.861Z,99212.38
2018-02-01T18:21:41.182Z,99225.72
2018-02-01T18:24:09.513Z,99224.88
2018-02-01T18:26:37.832Z,99230.75
2018-02-01T18:29:06.174Z,99236.39
2018-02-01T18:31:34.489Z,99240.71
2018-02-01T18:34:02.801Z,99239.00
2018-02-01T18:36:31.141Z,99248.92
2018-02-01T18:38:59.458Z,99250.53
2018-02-01T18:41:27.793Z,99253.44
2018-02-01T18:43:56.101Z,99258.48
2018-02-01T18:46:24.447Z,99253.31
2018-02-01T18:48:52.765Z,99258.84
2018-02-01T18:51:21.101Z,99261.92
2018-02-01T18:53:49.422Z,99265.00
2018-02-01T18:56:18.698Z,99267.69
2018-02-01T18:58:47.021Z,99273.00
2018-02-01T19:01:15.361Z,99278.00
2018-02-01T19:03:43.676Z,99276.33
2018-02-01T19:06:12.018Z,99276.05
2018-02-01T19:08:40.337Z,99274.12
2018-02-01T19:11:08.681Z,99277.39
2018-02-01T19:13:37.001Z,99279.45
2018-02-01T19:16:05.341Z,99280.59
2018-02-01T19:18:33.665Z,99289.04
2018-02-01T19:21:02.110Z,99286.27
2018-02-01T19:23:30.397Z,99289.90
2018-02-01T19:25:59.625Z,99290.19
2018-02-01T19:28:27.941Z,99281.97
2018-02-01T19:30:56.329Z,99277.37
2018-02-01T19:33:24.630Z,99278.03
2018-02-01T19:35:52.961Z,99276.37
2018-02-01T19:38:21.282Z,99281.02
2018-02-01T19:40:49.741Z,99280.38
2018-02-01T19:43:18.045Z,99279.95
2018-02-01T19:45:47.358Z,99282.55
2018-02-01T19:48:15.693Z,99283.86
2018-02-01T19:50:44.034Z,99285.04
2018-02-01T19:53:12.346Z,99285.99
2018-02-01T19:55:41.721Z,99282.06
2018-02-01T19:58:10.030Z,99289.69
2018-02-01T20:00:38.369Z,99284.53
2018-02-01T20:03:06.992Z,99286.29
2018-02-01T20:05:35.329Z,99285.76
2018-02-01T20:08:03.650Z,99284.43
2018-02-01T20:10:31.990Z,99292.23
2018-02-01T20:13:00.310Z,99283.33
2018-02-01T20:15:28.650Z,99283.04
2018-02-01T20:17:56.981Z,99284.17
2018-02-01T20:20:25.317Z,99281.70
2018-02-01T20:22:53.686Z,99277.19
2018-02-01T20:25:21.985Z,99280.58
2018-02-01T20:27:50.364Z,99281.91
2018-02-01T20:30:18.685Z,99280.94
2018-02-01T20:32:47.019Z,99281.94
2018-02-01T20:35:15.349Z,99280.58
2018-02-01T20:37:43.673Z,99278.34
2018-02-01T20:40:11.993Z,99269.69
2018-02-01T20:42:40.342Z,99274.74
2018-02-01T20:45:08.661Z,99286.23
2018-02-01T20:47:37.013Z,99283.35
2018-02-01T20:50:05.337Z,99292.75
2018-02-01T20:52:33.683Z,99287.67
2018-02-01T20:55:02.015Z,99288.98
2018-02-01T20:57:30.357Z,99294.70
2018-02-01T20:59:58.678Z,99291.92
2018-02-01T21:02:27.021Z,99297.19
2018-02-01T21:04:55.353Z,99288.48
2018-02-01T21:07:23.695Z,99289.10
2018-02-01T21:09:52.013Z,99289.13
2018-02-01T21:12:20.357Z,99296.16
2018-02-01T21:14:48.678Z,99289.05
2018-02-01T21:17:17.050Z,99295.14
2018-02-01T21:19:45.369Z,99288.30
2018-02-01T21:22:13.709Z,99289.63
2018-02-01T21:24:42.033Z,99292.37
2018-02-01T21:27:10.423Z,99287.96
2018-02-01T21:29:38.737Z,99285.05
2018-02-01T21:32:07.191Z,99288.75
2018-02-01T21:34:35.542Z,99299.55
2018-02-01T21:37:03.942Z,99304.72
2018-02-01T21:39:32.257Z,99310.67
2018-02-01T21:42:00.601Z,99306.60
2018-02-01T21:44:28.922Z,99308.09
2018-02-01T21:46:57.269Z,99309.40
2018-02-01T21:49:28.312Z,99309.01
2018-02-01T21:51:56.653Z,99302.09
2018-02-01T21:54:24.977Z,99297.83
2018-02-01T21:56:53.331Z,99293.52
2018-02-01T21:59:21.633Z,99295.80
2018-02-01T22:01:49.978Z,99299.10
2018-02-01T22:04:18.297Z,99293.96
2018-02-01T22:06:46.638Z,99294.17
2018-02-01T22:09:14.953Z,99298.13
2018-02-01T22:11:43.293Z,99283.20
2018-02-01T22:14:11.612Z,99277.78
2018-02-01T22:16:39.949Z,99289.16
2018-02-01T22:19:08.273Z,99294.29
2018-02-01T22:21:36.609Z,99289.59
2018-02-01T22:24:04.925Z,99280.30
2018-02-01T22:26:33.261Z,99287.97
2018-02-01T22:29:01.581Z,99285.27
2018-02-01T22:31:29.912Z,99285.23
2018-02-01T22:33:58.237Z,99288.75
2018-02-01T22:36:26.570Z,99284.24
2018-02-01T22:38:54.887Z,99284.80
2018-02-01T22:41:23.201Z,99290.73
2018-02-01T22:43:51.542Z,99290.64
2018-02-01T22:46:19.857Z,99292.36
2018-02-01T22:48:48.192Z,99288.03
2018-02-01T22:51:16.514Z,99295.39
2018-02-01T22:53:44.853Z,99296.47
2018-02-01T22:56:13.169Z,99292.25
2018-02-01T22:58:41.501Z,99299.47
2018-02-01T23:01:09.821Z,99301.58
2018-02-01T23:03:38.161Z,99304.48
2018-02-01T23:06:06.477Z,99300.80
2018-02-01T23:08:34.818Z,99303.54
2018-02-01T23:11:03.160Z,99301.20
2018-02-01T23:13:31.465Z,99308.95
2018-02-01T23:15:59.785Z,99302.55
2018-02-01T23:18:28.125Z,99302.41
2018-02-01T23:20:56.441Z,99304.54
2018-02-01T23:23:24.772Z,99305.84
2018-02-01T23:25:53.093Z,99310.45
2018-02-01T23:28:21.458Z,99300.45
2018-02-01T23:30:49.745Z,99295.81
2018-02-01T23:33:18.086Z,99297.55
2018-02-01T23:35:46.401Z,99295.63
2018-02-01T23:38:14.737Z,99297.61
2018-02-01T23:40:43.057Z,99301.28
2018-02-01T23:43:11.389Z,99293.25
2018-02-01T23:45:39.713Z,99292.89
2018-02-01T23:48:08.054Z,99294.81
2018-02-01T23:50:36.374Z,99291.84
2018-02-01T23:53:04.725Z,99279.44
2018-02-01T23:55:33.026Z,99288.73
2018-02-01T23:58:01.366Z,99282.78
